sensor_id;sensor_type;location;lat;lon;timestamp;pressure;altitude;pressure_sealevel;temperature;humidity
70815;BME280;58428;49.478;10.986;2023-05-24T00:00:53;98698.44;;;12.25;100.00
70815;BME280;58428;49.478;10.986;2023-05-24T00:03:20;98697.00;;;12.27;100.00
70815;BME280;58428;49.478;10.986;2023-05-24T00:05:46;98697.97;;;12.23;100.00
70815;BME280;58428;49.478;10.986;2023-05-24T00:08:20;98693.16;;;12.28;100.00
70815;BME280;58428;49.478;10.986;2023-05-24T00:10:50;98690.66;;;12.23;100.00
70815;BME280;58428;49.478;10.986;2023-05-24T00:13:16;98692.75;;;12.18;100.00
70815;BME280;58428;49.478;10.986;2023-05-24T00:15:42;98691.34;;;12.12;100.00
70815;BME280;58428;49.478;10.986;2023-05-24T00:18:09;98684.66;;;12.10;100.00
70815;BME280;58428;49.478;10.986;2023-05-24T00:20:37;98685.19;;;12.03;100.00
70815;BME280;58428;49.478;10.986;2023-05-24T00:23:06;98677.50;;;12.05;100.00
70815;BME280;58428;49.478;10.986;2023-05-24T00:25:32;98687.72;;;12.08;100.00
70815;BME280;58428;49.478;10.986;2023-05-24T00:27:58;98674.19;;;12.00;100.00
70815;BME280;58428;49.478;10.986;2023-05-24T00:30:26;98676.56;;;12.01;100.00
70815;BME280;58428;49.478;10.986;2023-05-24T00:32:51;98667.81;;;12.04;100.00
70815;BME280;58428;49.478;10.986;2023-05-24T00:35:17;98674.00;;;12.05;100.00
70815;BME280;58428;49.478;10.986;2023-05-24T00:37:42;98673.53;;;12.03;100.00
70815;BME280;58428;49.478;10.986;2023-05-24T00:40:12;98669.28;;;11.93;100.00
70815;BME280;58428;49.478;10.986;2023-05-24T00:42:37;98668.50;;;11.93;100.00
70815;BME280;58428;49.478;10.986;2023-05-24T00:45:04;98663.56;;;11.86;100.00
70815;BME280;58428;49.478;10.986;2023-05-24T00:47:31;98665.03;;;11.84;100.00
70815;BME280;58428;49.478;10.986;2023-05-24T00:49:56;98664.41;;;11.78;100.00
70815;BME280;58428;49.478;10.986;2023-05-24T00:52:22;98664.88;;;11.80;100.00
70815;BME280;58428;49.478;10.986;2023-05-24T00:54:48;98662.38;;;11.76;100.00
70815;BME280;58428;49.478;10.986;2023-05-24T00:57:16;98670.19;;;11.77;100.00
70815;BME280;58428;49.478;10.986;2023-05-24T00:59:43;98664.78;;;11.77;100.00
70815;BME280;58428;49.478;10.986;2023-05-24T01:02:10;98668.91;;;11.75;100.00
70815;BME280;58428;49.478;10.986;2023-05-24T01:04:37;98666.88;;;11.72;100.00
70815;BME280;58428;49.478;10.986;2023-05-24T01:10:02;98672.09;;;11.76;100.00
70815;BME280;58428;49.478;10.986;2023-05-24T01:12:40;98671.78;;;11.78;100.00
70815;BME280;58428;49.478;10.986;2023-05-24T01:20:39;98665.25;;;11.71;100.00
70815;BME280;58428;49.478;10.986;2023-05-24T01:23:55;98668.91;;;11.75;100.00
70815;BME280;58428;49.478;10.986;2023-05-24T01:28:56;98664.94;;;11.72;100.00
70815;BME280;58428;49.478;10.986;2023-05-24T01:31:25;98668.03;;;11.62;100.00
70815;BME280;58428;49.478;10.986;2023-05-24T01:33:52;98664.69;;;11.65;100.00
70815;BME280;58428;49.478;10.986;2023-05-24T01:36:19;98656.34;;;11.70;100.00
70815;BME280;58428;49.478;10.986;2023-05-24T01:38:46;98672.50;;;11.58;100.00
70815;BME280;58428;49.478;10.986;2023-05-24T01:41:26;98664.38;;;11.58;100.00
70815;BME280;58428;49.478;10.986;2023-05-24T01:44:06;98665.97;;;11.59;100.00
70815;BME280;58428;49.478;10.986;2023-05-24T01:46:37;98662.47;;;11.59;100.00
70815;BME280;58428;49.478;10.986;2023-05-24T01:49:08;98663.91;;;11.56;100.00
70815;BME280;58428;49.478;10.986;2023-05-24T01:51:37;98665.03;;;11.55;100.00
70815;BME280;58428;49.478;10.986;2023-05-24T01:54:05;98665.38;;;11.45;100.00
70815;BME280;58428;49.478;10.986;2023-05-24T01:56:30;98669.03;;;11.41;100.00
70815;BME280;58428;49.478;10.986;2023-05-24T01:58:57;98662.22;;;11.35;100.00
70815;BME280;58428;49.478;10.986;2023-05-24T02:01:25;98667.78;;;11.38;100.00
70815;BME280;58428;49.478;10.986;2023-05-24T02:03:51;98676.69;;;11.39;100.00
70815;BME280;58428;49.478;10.986;2023-05-24T02:06:16;98668.41;;;11.36;100.00
70815;BME280;58428;49.478;10.986;2023-05-24T02:08:42;98667.63;;;11.35;100.00
70815;BME280;58428;49.478;10.986;2023-05-24T02:11:07;98673.22;;;11.38;100.00
70815;BME280;58428;49.478;10.986;2023-05-24T02:13:33;98676.28;;;11.29;100.00
70815;BME280;58428;49.478;10.986;2023-05-24T02:15:58;98678.16;;;11.28;100.00
70815;BME280;58428;49.478;10.986;2023-05-24T02:18:24;98677.22;;;11.24;100.00
70815;BME280;58428;49.478;10.986;2023-05-24T02:20:49;98673.91;;;11.19;100.00
70815;BME280;58428;49.478;10.986;2023-05-24T02:23:15;98685.22;;;11.21;100.00
70815;BME280;58428;49.478;10.986;2023-05-24T02:25:40;98676.75;;;11.22;100.00
70815;BME280;58428;49.478;10.986;2023-05-24T02:28:07;98675.19;;;11.21;100.00
70815;BME280;58428;49.478;10.986;2023-05-24T02:30:32;98677.38;;;11.28;100.00
70815;BME280;58428;49.478;10.986;2023-05-24T02:32:58;98680.88;;;11.28;100.00
70815;BME280;58428;49.478;10.986;2023-05-24T02:35:24;98677.56;;;11.23;100.00
70815;BME280;58428;49.478;10.986;2023-05-24T02:37:53;98679.16;;;11.24;100.00
70815;BME280;58428;49.478;10.986;2023-05-24T02:40:18;98682.00;;;11.27;100.00
70815;BME280;58428;49.478;10.986;2023-05-24T02:42:44;98675.44;;;11.28;100.00
70815;BME280;58428;49.478;10.986;2023-05-24T02:45:10;98674.84;;;11.23;100.00
70815;BME280;58428;49.478;10.986;2023-05-24T02:47:35;98665.44;;;11.20;100.00
70815;BME280;58428;49.478;10.986;2023-05-24T02:50:03;98670.53;;;11.22;100.00
70815;BME280;58428;49.478;10.986;2023-05-24T02:52:29;98672.47;;;11.21;100.00
70815;BME280;58428;49.478;10.986;2023-05-24T02:54:55;98666.59;;;11.11;100.00
70815;BME280;58428;49.478;10.986;2023-05-24T02:57:20;98664.84;;;11.15;100.00
70815;BME280;58428;49.478;10.986;2023-05-24T02:59:47;98677.88;;;11.21;100.00
70815;BME280;58428;49.478;10.986;2023-05-24T03:02:14;98669.44;;;11.23;100.00
70815;BME280;58428;49.478;10.986;2023-05-24T03:04:42;98670.53;;;11.22;100.00
70815;BME280;58428;49.478;10.986;2023-05-24T03:07:07;98675.44;;;11.28;100.00
70815;BME280;58428;49.478;10.986;2023-05-24T03:09:33;98674.19;;;11.26;100.00
70815;BME280;58428;49.478;10.986;2023-05-24T03:11:58;98675.13;;;11.30;100.00
70815;BME280;58428;49.478;10.986;2023-05-24T03:14:24;98674.03;;;11.31;100.00
70815;BME280;58428;49.478;10.986;2023-05-24T03:16:49;98671.78;;;11.33;100.00
70815;BME280;58428;49.478;10.986;2023-05-24T03:19:15;98676.75;;;11.31;100.00
70815;BME280;58428;49.478;10.986;2023-05-24T03:21:43;98681.22;;;11.27;100.00
70815;BME280;58428;49.478;10.986;2023-05-24T03:24:10;98679.16;;;11.24;100.00
70815;BME280;58428;49.478;10.986;2023-05-24T03:26:38;98679.81;;;11.21;100.00
70815;BME280;58428;49.478;10.986;2023-05-24T03:29:03;98684.25;;;11.25;100.00
70815;BME280;58428;49.478;10.986;2023-05-24T03:31:28;98683.16;;;11.18;100.00
70815;BME280;58428;49.478;10.986;2023-05-24T03:33:54;98687.47;;;11.19;100.00
70815;BME280;58428;49.478;10.986;2023-05-24T03:36:20;98689.97;;;11.24;100.00
70815;BME280;58428;49.478;10.986;2023-05-24T03:38:45;98682.63;;;11.24;100.00
70815;BME280;58428;49.478;10.986;2023-05-24T03:41:10;98689.66;;;11.25;100.00
70815;BME280;58428;49.478;10.986;2023-05-24T03:43:36;98686.16;;;11.25;100.00
70815;BME280;58428;49.478;10.986;2023-05-24T03:46:01;98674.38;;;11.21;100.00
70815;BME280;58428;49.478;10.986;2023-05-24T03:48:27;98682.97;;;11.23;100.00
70815;BME280;58428;49.478;10.986;2023-05-24T03:50:53;98682.34;;;11.17;100.00
70815;BME280;58428;49.478;10.986;2023-05-24T03:53:20;98685.88;;;11.09;100.00
70815;BME280;58428;49.478;10.986;2023-05-24T03:55:46;98686.31;;;11.20;100.00
70815;BME280;58428;49.478;10.986;2023-05-24T03:58:12;98686.28;;;11.28;100.00
70815;BME280;58428;49.478;10.986;2023-05-24T04:00:37;98685.66;;;11.31;100.00
70815;BME280;58428;49.478;10.986;2023-05-24T04:03:03;98693.00;;;11.31;100.00
70815;BME280;58428;49.478;10.986;2023-05-24T04:05:31;98687.25;;;11.24;100.00
70815;BME280;58428;49.478;10.986;2023-05-24T04:07:57;98689.19;;;11.23;100.00
70815;BME280;58428;49.478;10.986;2023-05-24T04:10:23;98693.00;;;11.31;100.00
70815;BME280;58428;49.478;10.986;2023-05-24T04:12:48;98688.88;;;11.25;100.00
70815;BME280;58428;49.478;10.986;2023-05-24T04:15:13;98694.09;;;11.30;100.00
70815;BME280;58428;49.478;10.986;2023-05-24T04:17:43;98689.94;;;11.32;100.00
70815;BME280;58428;49.478;10.986;2023-05-24T04:20:12;98694.88;;;11.38;100.00
70815;BME280;58428;49.478;10.986;2023-05-24T04:22:39;98697.28;;;11.40;100.00
70815;BME280;58428;49.478;10.986;2023-05-24T04:25:05;98693.91;;;11.43;100.00
70815;BME280;58428;49.478;10.986;2023-05-24T04:27:31;98698.53;;;11.51;100.00
70815;BME280;58428;49.478;10.986;2023-05-24T04:30:00;98693.88;;;11.51;100.00
70815;BME280;58428;49.478;10.986;2023-05-24T04:32:27;98696.28;;;11.53;100.00
70815;BME280;58428;49.478;10.986;2023-05-24T04:34:55;98695.34;;;11.49;100.00
70815;BME280;58428;49.478;10.986;2023-05-24T04:37:21;98693.75;;;11.48;100.00
70815;BME280;58428;49.478;10.986;2023-05-24T04:39:46;98693.41;;;11.58;100.00
70815;BME280;58428;49.478;10.986;2023-05-24T04:42:12;98699.47;;;11.55;100.00
70815;BME280;58428;49.478;10.986;2023-05-24T04:44:39;98697.38;;;11.60;100.00
70815;BME280;58428;49.478;10.986;2023-05-24T04:47:06;98695.59;;;11.64;100.00
70815;BME280;58428;49.478;10.986;2023-05-24T04:49:31;98698.63;;;11.63;100.00
70815;BME280;58428;49.478;10.986;2023-05-24T04:51:57;98698.47;;;11.59;100.00
70815;BME280;58428;49.478;10.986;2023-05-24T04:54:23;98691.91;;;11.69;100.00
70815;BME280;58428;49.478;10.986;2023-05-24T04:56:48;98685.00;;;11.79;100.00
70815;BME280;58428;49.478;10.986;2023-05-24T04:59:14;98692.81;;;11.81;100.00
70815;BME280;58428;49.478;10.986;2023-05-24T05:01:39;98696.63;;;11.80;100.00
70815;BME280;58428;49.478;10.986;2023-05-24T05:04:06;98692.34;;;11.79;100.00
70815;BME280;58428;49.478;10.986;2023-05-24T05:06:32;98690.09;;;11.81;100.00
70815;BME280;58428;49.478;10.986;2023-05-24T05:09:05;98689.91;;;11.86;100.00
70815;BME280;58428;49.478;10.986;2023-05-24T05:11:35;98687.66;;;11.88;100.00
70815;BME280;58428;49.478;10.986;2023-05-24T05:14:01;98691.97;;;11.89;100.00
70815;BME280;58428;49.478;10.986;2023-05-24T05:16:27;98687.88;;;11.83;100.00
70815;BME280;58428;49.478;10.986;2023-05-24T05:18:52;98694.38;;;11.90;100.00
70815;BME280;58428;49.478;10.986;2023-05-24T05:21:18;98697.66;;;11.96;100.00
70815;BME280;58428;49.478;10.986;2023-05-24T05:23:44;98707.44;;;11.88;100.00
70815;BME280;58428;49.478;10.986;2023-05-24T05:26:09;98704.44;;;11.81;100.00
70815;BME280;58428;49.478;10.986;2023-05-24T05:28:35;98711.88;;;11.93;100.00
70815;BME280;58428;49.478;10.986;2023-05-24T05:31:03;98698.13;;;11.98;100.00
70815;BME280;58428;49.478;10.986;2023-05-24T05:33:31;98700.47;;;12.08;100.00
70815;BME280;58428;49.478;10.986;2023-05-24T05:35:57;98699.44;;;12.20;100.00
70815;BME280;58428;49.478;10.986;2023-05-24T05:38:22;98705.13;;;12.27;100.00
70815;BME280;58428;49.478;10.986;2023-05-24T05:40:48;98711.50;;;12.31;100.00
70815;BME280;58428;49.478;10.986;2023-05-24T05:43:14;98694.78;;;12.21;100.00
70815;BME280;58428;49.478;10.986;2023-05-24T05:45:40;98703.59;;;12.18;100.00
70815;BME280;58428;49.478;10.986;2023-05-24T05:48:06;98702.34;;;12.15;100.00
70815;BME280;58428;49.478;10.986;2023-05-24T05:50:33;98699.09;;;12.22;100.00
70815;BME280;58428;49.478;10.986;2023-05-24T05:52:58;98710.44;;;12.24;100.00
70815;BME280;58428;49.478;10.986;2023-05-24T05:55:24;98709.16;;;12.21;100.00
70815;BME280;58428;49.478;10.986;2023-05-24T05:57:50;98713.31;;;12.19;100.00
70815;BME280;58428;49.478;10.986;2023-05-24T06:00:15;98708.34;;;12.21;100.00
70815;BME280;58428;49.478;10.986;2023-05-24T06:02:41;98711.50;;;12.31;100.00
70815;BME280;58428;49.478;10.986;2023-05-24T06:05:06;98716.53;;;12.41;100.00
70815;BME280;58428;49.478;10.986;2023-05-24T06:07:32;98726.31;;;12.34;100.00
70815;BME280;58428;49.478;10.986;2023-05-24T06:09:58;98724.53;;;12.38;100.00
70815;BME280;58428;49.478;10.986;2023-05-24T06:12:24;98728.25;;;12.33;100.00
70815;BME280;58428;49.478;10.986;2023-05-24T06:14:50;98736.41;;;12.25;100.00
70815;BME280;58428;49.478;10.986;2023-05-24T06:17:18;98731.44;;;12.07;100.00
70815;BME280;58428;49.478;10.986;2023-05-24T06:19:43;98722.53;;;11.98;100.00
70815;BME280;58428;49.478;10.986;2023-05-24T06:22:11;98730.59;;;12.14;100.00
70815;BME280;58428;49.478;10.986;2023-05-24T06:24:38;98730.25;;;12.16;100.00
70815;BME280;58428;49.478;10.986;2023-05-24T06:27:04;98732.31;;;12.19;100.00
70815;BME280;58428;49.478;10.986;2023-05-24T06:29:29;98737.34;;;12.29;100.00
70815;BME280;58428;49.478;10.986;2023-05-24T06:32:00;98740.16;;;12.41;100.00
70815;BME280;58428;49.478;10.986;2023-05-24T06:34:27;98736.00;;;12.43;100.00
70815;BME280;58428;49.478;10.986;2023-05-24T06:36:53;98733.34;;;12.55;100.00
70815;BME280;58428;49.478;10.986;2023-05-24T06:39:19;98737.44;;;12.61;100.00
70815;BME280;58428;49.478;10.986;2023-05-24T06:41:45;98739.16;;;12.65;100.00
70815;BME280;58428;49.478;10.986;2023-05-24T06:44:11;98744.94;;;12.64;100.00
70815;BME280;58428;49.478;10.986;2023-05-24T06:46:36;98749.16;;;12.73;100.00
70815;BME280;58428;49.478;10.986;2023-05-24T06:49:02;98744.66;;;12.77;100.00
70815;BME280;58428;49.478;10.986;2023-05-24T06:51:29;98746.25;;;12.78;100.00
70815;BME280;58428;49.478;10.986;2023-05-24T06:53:57;98756.19;;;12.74;100.00
70815;BME280;58428;49.478;10.986;2023-05-24T06:56:24;98751.50;;;12.83;100.00
70815;BME280;58428;49.478;10.986;2023-05-24T06:58:49;98750.91;;;12.78;100.00
70815;BME280;58428;49.478;10.986;2023-05-24T07:01:15;98747.66;;;13.04;100.00
70815;BME280;58428;49.478;10.986;2023-05-24T07:03:41;98754.72;;;13.17;100.00
70815;BME280;58428;49.478;10.986;2023-05-24T07:06:06;98757.66;;;13.44;100.00
70815;BME280;58428;49.478;10.986;2023-05-24T07:08:34;98757.00;;;13.47;100.00
70815;BME280;58428;49.478;10.986;2023-05-24T07:10:59;98760.53;;;13.60;100.00
70815;BME280;58428;49.478;10.986;2023-05-24T07:13:25;98754.53;;;13.78;100.00
70815;BME280;58428;49.478;10.986;2023-05-24T07:15:50;98755.84;;;14.04;100.00
70815;BME280;58428;49.478;10.986;2023-05-24T07:18:15;98754.78;;;13.85;100.00
70815;BME280;58428;49.478;10.986;2023-05-24T07:20:41;98766.31;;;13.82;100.00
70815;BME280;58428;49.478;10.986;2023-05-24T07:23:08;98760.41;;;13.68;100.00
70815;BME280;58428;49.478;10.986;2023-05-24T07:25:34;98766.22;;;13.66;100.00
70815;BME280;58428;49.478;10.986;2023-05-24T07:27:59;98769.03;;;13.70;100.00
70815;BME280;58428;49.478;10.986;2023-05-24T07:30:25;98763.72;;;13.85;100.00
70815;BME280;58428;49.478;10.986;2023-05-24T07:32:51;98762.81;;;13.81;100.00
70815;BME280;58428;49.478;10.986;2023-05-24T07:35:16;98767.34;;;13.77;100.00
70815;BME280;58428;49.478;10.986;2023-05-24T07:37:44;98769.13;;;13.61;100.00
70815;BME280;58428;49.478;10.986;2023-05-24T07:40:10;98774.78;;;14.00;100.00
70815;BME280;58428;49.478;10.986;2023-05-24T07:42:37;98770.13;;;14.01;100.00
70815;BME280;58428;49.478;10.986;2023-05-24T07:45:05;98768.06;;;13.86;100.00
70815;BME280;58428;49.478;10.986;2023-05-24T07:47:31;98775.78;;;13.52;100.00
70815;BME280;58428;49.478;10.986;2023-05-24T07:49:58;98777.41;;;13.65;100.00
70815;BME280;58428;49.478;10.986;2023-05-24T07:52:24;98773.25;;;13.79;100.00
70815;BME280;58428;49.478;10.986;2023-05-24T07:54:50;98765.75;;;13.64;100.00
70815;BME280;58428;49.478;10.986;2023-05-24T07:57:17;98768.84;;;13.43;100.00
70815;BME280;58428;49.478;10.986;2023-05-24T07:59:44;98770.19;;;13.37;100.00
70815;BME280;58428;49.478;10.986;2023-05-24T08:02:11;98773.78;;;13.29;100.00
70815;BME280;58428;49.478;10.986;2023-05-24T08:04:41;98771.63;;;13.02;100.00
70815;BME280;58428;49.478;10.986;2023-05-24T08:07:06;98772.38;;;13.11;100.00
70815;BME280;58428;49.478;10.986;2023-05-24T08:09:32;98768.16;;;13.14;100.00
70815;BME280;58428;49.478;10.986;2023-05-24T08:12:07;98770.84;;;13.02;100.00
70815;BME280;58428;49.478;10.986;2023-05-24T08:14:32;98765.69;;;13.09;100.00
70815;BME280;58428;49.478;10.986;2023-05-24T08:16:58;98776.88;;;13.07;100.00
70815;BME280;58428;49.478;10.986;2023-05-24T08:19:26;98772.38;;;13.11;100.00
70815;BME280;58428;49.478;10.986;2023-05-24T08:21:53;98770.75;;;13.10;100.00
70815;BME280;58428;49.478;10.986;2023-05-24T08:24:19;98777.28;;;12.97;100.00
70815;BME280;58428;49.478;10.986;2023-05-24T08:26:45;98770.03;;;12.81;100.00
70815;BME280;58428;49.478;10.986;2023-05-24T08:29:11;98782.63;;;13.06;100.00
70815;BME280;58428;49.478;10.986;2023-05-24T08:31:36;98780.44;;;13.20;100.00
70815;BME280;58428;49.478;10.986;2023-05-24T08:34:02;98786.69;;;13.00;100.00
70815;BME280;58428;49.478;10.986;2023-05-24T08:36:28;98788.53;;;12.88;100.00
70815;BME280;58428;49.478;10.986;2023-05-24T08:38:55;98781.66;;;12.90;100.00
70815;BME280;58428;49.478;10.986;2023-05-24T08:41:20;98790.19;;;12.80;100.00
70815;BME280;58428;49.478;10.986;2023-05-24T08:43:48;98791.03;;;12.92;100.00
70815;BME280;58428;49.478;10.986;2023-05-24T08:46:15;98785.88;;;12.79;100.00
70815;BME280;58428;49.478;10.986;2023-05-24T08:48:45;98791.41;;;12.62;100.00
70815;BME280;58428;49.478;10.986;2023-05-24T08:51:14;98791.56;;;12.66;100.00
70815;BME280;58428;49.478;10.986;2023-05-24T08:53:40;98790.59;;;12.62;100.00
70815;BME280;58428;49.478;10.986;2023-05-24T08:56:07;98791.03;;;12.72;100.00
70815;BME280;58428;49.478;10.986;2023-05-24T08:58:36;98792.50;;;12.70;100.00
70815;BME280;58428;49.478;10.986;2023-05-24T09:01:02;98794.06;;;12.71;100.00
70815;BME280;58428;49.478;10.986;2023-05-24T09:03:30;98801.84;;;12.81;100.00
70815;BME280;58428;49.478;10.986;2023-05-24T09:05:57;98791.59;;;12.86;100.00
70815;BME280;58428;49.478;10.986;2023-05-24T09:08:23;98799.59;;;12.83;100.00
70815;BME280;58428;49.478;10.986;2023-05-24T09:10:49;98795.69;;;12.92;100.00
70815;BME280;58428;49.478;10.986;2023-05-24T09:13:16;98804.97;;;13.11;100.00
70815;BME280;58428;49.478;10.986;2023-05-24T09:15:42;98803.56;;;13.05;100.00
70815;BME280;58428;49.478;10.986;2023-05-24T09:18:08;98810.00;;;13.01;100.00
70815;BME280;58428;49.478;10.986;2023-05-24T09:20:34;98812.72;;;12.81;100.00
70815;BME280;58428;49.478;10.986;2023-05-24T09:23:01;98823.56;;;12.81;100.00
70815;BME280;58428;49.478;10.986;2023-05-24T09:25:29;98825.88;;;12.90;100.00
70815;BME280;58428;49.478;10.986;2023-05-24T09:27:54;98817.13;;;12.85;100.00
70815;BME280;58428;49.478;10.986;2023-05-24T09:30:20;98823.25;;;12.82;100.00
70815;BME280;58428;49.478;10.986;2023-05-24T09:35:21;98817.41;;;12.92;100.00
70815;BME280;58428;49.478;10.986;2023-05-24T09:37:46;98817.81;;;13.02;100.00
70815;BME280;58428;49.478;10.986;2023-05-24T09:40:18;98824.25;;;13.18;100.00
70815;BME280;58428;49.478;10.986;2023-05-24T09:42:44;98821.59;;;13.30;100.00
70815;BME280;58428;49.478;10.986;2023-05-24T09:45:11;98811.69;;;13.46;100.00
70815;BME280;58428;49.478;10.986;2023-05-24T09:47:38;98813.56;;;13.77;100.00
70815;BME280;58428;49.478;10.986;2023-05-24T09:50:11;98811.00;;;13.93;100.00
70815;BME280;58428;49.478;10.986;2023-05-24T09:52:37;98810.13;;;14.00;100.00
70815;BME280;58428;49.478;10.986;2023-05-24T09:55:29;98807.47;;;13.80;100.00
70815;BME280;58428;49.478;10.986;2023-05-24T09:58:03;98808.25;;;13.69;100.00
70815;BME280;58428;49.478;10.986;2023-05-24T10:00:32;98808.13;;;13.65;100.00
70815;BME280;58428;49.478;10.986;2023-05-24T10:03:03;98810.94;;;14.01;100.00
70815;BME280;58428;49.478;10.986;2023-05-24T10:05:31;98808.47;;;14.43;100.00
70815;BME280;58428;49.478;10.986;2023-05-24T10:07:57;98801.88;;;14.68;100.00
70815;BME280;58428;49.478;10.986;2023-05-24T10:10:29;98806.75;;;14.51;100.00
70815;BME280;58428;49.478;10.986;2023-05-24T10:12:55;98801.44;;;14.54;100.00
70815;BME280;58428;49.478;10.986;2023-05-24T10:15:22;98807.56;;;14.39;100.00
70815;BME280;58428;49.478;10.986;2023-05-24T10:17:47;98795.41;;;14.61;100.00
70815;BME280;58428;49.478;10.986;2023-05-24T10:20:12;98786.84;;;14.86;100.00
70815;BME280;58428;49.478;10.986;2023-05-24T10:22:42;98785.25;;;14.97;100.00
70815;BME280;58428;49.478;10.986;2023-05-24T10:25:18;98792.22;;;15.48;100.00
70815;BME280;58428;49.478;10.986;2023-05-24T10:27:48;98786.63;;;15.57;100.00
70815;BME280;58428;49.478;10.986;2023-05-24T10:32:50;98780.53;;;15.63;100.00
70815;BME280;58428;49.478;10.986;2023-05-24T10:35:18;98779.97;;;15.70;100.00
70815;BME280;58428;49.478;10.986;2023-05-24T10:37:47;98774.88;;;15.99;100.00
70815;BME280;58428;49.478;10.986;2023-05-24T10:40:21;98771.09;;;16.03;100.00
70815;BME280;58428;49.478;10.986;2023-05-24T10:42:49;98777.25;;;16.16;100.00
70815;BME280;58428;49.478;10.986;2023-05-24T10:47:47;98772.94;;;15.99;100.00
70815;BME280;58428;49.478;10.986;2023-05-24T10:50:20;98764.75;;;15.99;100.00
70815;BME280;58428;49.478;10.986;2023-05-24T10:52:48;98770.19;;;15.84;100.00
70815;BME280;58428;49.478;10.986;2023-05-24T10:55:14;98766.59;;;15.80;100.00
70815;BME280;58428;49.478;10.986;2023-05-24T10:57:39;98767.53;;;15.72;100.00
70815;BME280;58428;49.478;10.986;2023-05-24T11:05:35;98776.53;;;15.88;100.00
70815;BME280;58428;49.478;10.986;2023-05-24T11:08:23;98778.19;;;15.92;100.00
70815;BME280;58428;49.478;10.986;2023-05-24T11:11:06;98782.38;;;16.17;100.00
70815;BME280;58428;49.478;10.986;2023-05-24T11:13:33;98778.19;;;15.92;100.00
70815;BME280;58428;49.478;10.986;2023-05-24T11:15:58;98774.78;;;15.80;100.00
70815;BME280;58428;49.478;10.986;2023-05-24T11:18:24;98777.41;;;15.77;100.00
70815;BME280;58428;49.478;10.986;2023-05-24T11:20:51;98775.22;;;15.82;100.00
70815;BME280;58428;49.478;10.986;2023-05-24T11:23:17;98763.00;;;16.07;100.00
70815;BME280;58428;49.478;10.986;2023-05-24T11:25:45;98777.25;;;16.16;100.00
70815;BME280;58428;49.478;10.986;2023-05-24T11:28:11;98770.56;;;16.13;100.00
70815;BME280;58428;49.478;10.986;2023-05-24T11:30:46;98765.88;;;16.44;100.00
70815;BME280;58428;49.478;10.986;2023-05-24T11:33:22;98775.41;;;16.84;100.00
70815;BME280;58428;49.478;10.986;2023-05-24T11:35:53;98759.00;;;16.84;100.00
70815;BME280;58428;49.478;10.986;2023-05-24T11:38:20;98765.28;;;17.03;100.00
70815;BME280;58428;49.478;10.986;2023-05-24T11:40:48;98753.94;;;17.20;100.00
70815;BME280;58428;49.478;10.986;2023-05-24T11:45:44;98756.00;;;17.45;95.74
70815;BME280;58428;49.478;10.986;2023-05-24T11:48:10;98763.00;;;17.05;88.78
70815;BME280;58428;49.478;10.986;2023-05-24T11:50:41;98753.72;;;17.29;93.16
70815;BME280;58428;49.478;10.986;2023-05-24T11:53:11;98758.03;;;17.30;89.02
70815;BME280;58428;49.478;10.986;2023-05-24T11:55:39;98745.31;;;17.18;90.36
70815;BME280;58428;49.478;10.986;2023-05-24T11:58:22;98748.50;;;16.86;90.43
70815;BME280;58428;49.478;10.986;2023-05-24T12:00:50;98745.19;;;16.77;93.87
70815;BME280;58428;49.478;10.986;2023-05-24T12:03:16;98742.22;;;16.86;93.64
70815;BME280;58428;49.478;10.986;2023-05-24T12:05:42;98742.69;;;17.06;93.52
70815;BME280;58428;49.478;10.986;2023-05-24T12:08:10;98748.94;;;17.07;92.25
70815;BME280;58428;49.478;10.986;2023-05-24T12:10:40;98736.91;;;17.27;90.98
70815;BME280;58428;49.478;10.986;2023-05-24T12:13:19;98739.16;;;17.06;90.58
70815;BME280;58428;49.478;10.986;2023-05-24T12:15:48;98739.88;;;16.84;89.68
70815;BME280;58428;49.478;10.986;2023-05-24T12:18:18;98739.06;;;16.84;91.52
70815;BME280;58428;49.478;10.986;2023-05-24T12:20:47;98733.41;;;16.92;90.61
70815;BME280;58428;49.478;10.986;2023-05-24T12:23:13;98733.16;;;16.82;89.68
70815;BME280;58428;49.478;10.986;2023-05-24T12:25:38;98725.03;;;16.85;90.55
70815;BME280;58428;49.478;10.986;2023-05-24T12:28:03;98728.44;;;16.79;87.89
70815;BME280;58428;49.478;10.986;2023-05-24T12:30:30;98723.28;;;16.58;87.88
70815;BME280;58428;49.478;10.986;2023-05-24T12:32:56;98727.44;;;16.87;90.63
70815;BME280;58428;49.478;10.986;2023-05-24T12:35:22;98719.31;;;16.90;86.70
70815;BME280;58428;49.478;10.986;2023-05-24T12:37:48;98718.78;;;16.85;86.80
70815;BME280;58428;49.478;10.986;2023-05-24T12:40:22;98719.25;;;17.05;85.69
70815;BME280;58428;49.478;10.986;2023-05-24T12:42:55;98711.28;;;17.16;87.85
70815;BME280;58428;49.478;10.986;2023-05-24T12:45:22;98710.34;;;17.27;86.42
70815;BME280;58428;49.478;10.986;2023-05-24T12:47:54;98714.63;;;17.47;84.50
70815;BME280;58428;49.478;10.986;2023-05-24T12:50:21;98701.63;;;17.85;85.81
70815;BME280;58428;49.478;10.986;2023-05-24T12:52:47;98700.09;;;17.87;82.06
70815;BME280;58428;49.478;10.986;2023-05-24T12:55:24;98702.47;;;17.67;80.39
70815;BME280;58428;49.478;10.986;2023-05-24T12:57:51;98697.03;;;17.92;82.47
70815;BME280;58428;49.478;10.986;2023-05-24T13:00:24;98692.94;;;17.79;79.19
70815;BME280;58428;49.478;10.986;2023-05-24T13:02:55;98691.09;;;17.87;81.44
70815;BME280;58428;49.478;10.986;2023-05-24T13:05:27;98688.00;;;18.10;82.74
70815;BME280;58428;49.478;10.986;2023-05-24T13:07:53;98689.44;;;18.56;82.03